createdAt,value
2018-11-03T00:01:01.663Z,96033.85
2018-11-03T00:03:30.902Z,96032.22
2018-11-03T00:06:00.014Z,96030.84
2018-11-03T00:08:29.113Z,96026.23
2018-11-03T00:10:58.302Z,96032.48
2018-11-03T00:13:27.510Z,96030.07
2018-11-03T00:15:56.892Z,96027.61
2018-11-03T00:18:26.195Z,96026.33
2018-11-03T00:20:55.509Z,96023.58
2018-11-03T00:23:24.686Z,96019.62
2018-11-03T00:25:53.779Z,96018.08
2018-11-03T00:28:22.855Z,96014.61
2018-11-03T00:30:52.086Z,96014.73
2018-11-03T00:33:21.314Z,96016.27
2018-11-03T00:35:50.623Z,96015.13
2018-11-03T00:38:19.902Z,96016.68
2018-11-03T00:40:49.286Z,96012.67
2018-11-03T00:43:18.500Z,96008.20
2018-11-03T00:45:48.631Z,96006.47
2018-11-03T00:48:17.864Z,96000.48
2018-11-03T00:50:46.931Z,96009.09
2018-11-03T00:53:16.202Z,96014.11
2018-11-03T00:55:45.258Z,96017.63
2018-11-03T00:58:14.507Z,96013.44
2018-11-03T01:00:43.707Z,96007.78
2018-11-03T01:03:12.938Z,96008.38
2018-11-03T01:05:42.173Z,96007.23
2018-11-03T01:08:11.352Z,96009.13
2018-11-03T01:10:40.934Z,96009.28
2018-11-03T01:13:10.039Z,95992.68
2018-11-03T01:15:39.433Z,96003.27
2018-11-03T01:18:08.524Z,95994.44
2018-11-03T01:20:37.731Z,96001.20
2018-11-03T01:23:07.109Z,95999.72
2018-11-03T01:25:36.339Z,95998.45
2018-11-03T01:28:05.477Z,95995.47
2018-11-03T01:30:34.738Z,95999.05
2018-11-03T01:33:04.006Z,95998.81
2018-11-03T01:35:33.230Z,95987.58
2018-11-03T01:38:02.351Z,95996.67
2018-11-03T01:40:31.558Z,95997.51
2018-11-03T01:43:00.739Z,95999.05
2018-11-03T01:45:29.854Z,95998.77
2018-11-03T01:47:59.042Z,95995.03
2018-11-03T01:50:28.170Z,95990.72
2018-11-03T01:52:57.290Z,95994.67
2018-11-03T01:55:26.435Z,95986.74
2018-11-03T01:57:55.719Z,95993.47
2018-11-03T02:00:24.821Z,95988.57
2018-11-03T02:02:54.266Z,95990.66
2018-11-03T02:05:23.332Z,95987.31
2018-11-03T02:07:52.562Z,95990.53
2018-11-03T02:10:21.898Z,95991.73
2018-11-03T02:12:51.687Z,95990.92
2018-11-03T02:15:20.966Z,95991.64
2018-11-03T02:17:50.036Z,95994.38
2018-11-03T02:20:19.240Z,95990.75
2018-11-03T02:22:48.327Z,95987.52
2018-11-03T02:25:17.542Z,95994.38
2018-11-03T02:27:46.957Z,95986.64
2018-11-03T02:30:16.126Z,95989.70
2018-11-03T02:32:45.298Z,95986.95
2018-11-03T02:35:14.516Z,95982.23
2018-11-03T02:37:43.711Z,95977.03
2018-11-03T02:40:13.666Z,95985.48
2018-11-03T02:42:43.238Z,95981.90
2018-11-03T02:45:12.675Z,95987.84
2018-11-03T02:47:42.411Z,95987.00
2018-11-03T02:50:13.476Z,95987.50
2018-11-03T02:52:43.112Z,95985.03
2018-11-03T02:55:12.248Z,95981.09
2018-11-03T02:57:41.355Z,95982.95
2018-11-03T03:00:11.532Z,95986.30
2018-11-03T03:02:40.883Z,95990.17
2018-11-03T03:05:11.035Z,95991.66
2018-11-03T03:07:40.411Z,95986.62
2018-11-03T03:10:11.056Z,95987.28
2018-11-03T03:12:40.355Z,95986.94
2018-11-03T03:15:11.248Z,95991.09
2018-11-03T03:17:40.951Z,95986.97
2018-11-03T03:20:11.315Z,95984.41
2018-11-03T03:22:40.417Z,95977.83
2018-11-03T03:25:10.397Z,95980.50
2018-11-03T03:27:39.467Z,95980.58
2018-11-03T03:30:09.572Z,95982.44
2018-11-03T03:32:38.720Z,95983.91
2018-11-03T03:35:08.138Z,95980.82
2018-11-03T03:37:37.210Z,95977.48
2018-11-03T03:40:07.424Z,95973.47
2018-11-03T03:42:36.579Z,95983.67
2018-11-03T03:45:06.259Z,95980.22
2018-11-03T03:47:35.303Z,95980.08
2018-11-03T03:50:04.557Z,95984.27
2018-11-03T03:52:33.802Z,95987.46
2018-11-03T03:55:03.208Z,95984.22
2018-11-03T03:57:32.542Z,95979.83
2018-11-03T04:00:01.649Z,95975.12
2018-11-03T04:02:30.835Z,95974.52
2018-11-03T04:04:59.939Z,95967.80
2018-11-03T04:07:29.103Z,95977.99
2018-11-03T04:09:58.132Z,95975.42
2018-11-03T04:12:27.136Z,95963.19
2018-11-03T04:14:56.276Z,95965.75
2018-11-03T04:17:25.616Z,95971.59
2018-11-03T04:19:55.066Z,95967.05
2018-11-03T04:22:24.818Z,95971.52
2018-11-03T04:24:53.875Z,95968.63
2018-11-03T04:27:22.933Z,95974.80
2018-11-03T04:29:52.349Z,95965.30
2018-11-03T04:32:21.971Z,95973.44
2018-11-03T04:34:50.949Z,95977.72
2018-11-03T04:37:20.131Z,95979.97
2018-11-03T04:39:49.307Z,95979.09
2018-11-03T04:42:18.521Z,95981.34
2018-11-03T04:44:48.097Z,95978.64
2018-11-03T04:47:17.247Z,95975.80
2018-11-03T04:49:46.634Z,95985.00
2018-11-03T04:52:15.743Z,95985.59
2018-11-03T04:54:44.936Z,95976.97
2018-11-03T04:57:14.150Z,95974.33
2018-11-03T04:59:43.453Z,95983.47
2018-11-03T05:02:12.838Z,95986.47
2018-11-03T05:04:42.022Z,95985.03
2018-11-03T05:07:11.317Z,95988.12
2018-11-03T05:09:40.718Z,95986.94
2018-11-03T05:12:09.889Z,95988.73
2018-11-03T05:14:39.118Z,95991.27
2018-11-03T05:17:08.588Z,95990.50
2018-11-03T05:19:37.754Z,95989.38
2018-11-03T05:22:07.283Z,95977.82
2018-11-03T05:24:36.470Z,95994.05
2018-11-03T05:27:05.753Z,96002.67
2018-11-03T05:29:34.872Z,96002.95
2018-11-03T05:32:04.146Z,95999.56
2018-11-03T05:34:33.382Z,96005.83
2018-11-03T05:37:02.650Z,96008.47
2018-11-03T05:39:31.936Z,96007.41
2018-11-03T05:42:01.043Z,96010.67
2018-11-03T05:44:30.166Z,96012.17
2018-11-03T05:46:59.328Z,96013.67
2018-11-03T05:49:28.451Z,96013.16
2018-11-03T05:51:57.635Z,96015.19
2018-11-03T05:54:26.823Z,96012.80
2018-11-03T05:56:56.056Z,96023.93
2018-11-03T05:59:25.418Z,96025.73
2018-11-03T06:01:54.655Z,96021.31
2018-11-03T06:04:23.787Z,96026.14
2018-11-03T06:06:52.843Z,96029.89
2018-11-03T06:09:22.134Z,96022.48
2018-11-03T06:11:51.562Z,96023.47
2018-11-03T06:14:20.846Z,96029.34
2018-11-03T06:16:49.914Z,96033.84
2018-11-03T06:19:19.968Z,96042.14
2018-11-03T06:21:49.329Z,96033.38
2018-11-03T06:24:18.447Z,96039.19
2018-11-03T06:26:47.701Z,96038.75
2018-11-03T06:29:16.894Z,96043.80
2018-11-03T06:31:45.878Z,96044.56
2018-11-03T06:34:15.019Z,96048.42
2018-11-03T06:36:44.282Z,96039.36
2018-11-03T06:39:14.209Z,96041.53
2018-11-03T06:41:43.569Z,96037.58
2018-11-03T06:44:12.856Z,96032.07
2018-11-03T06:46:42.255Z,96029.45
2018-11-03T06:49:16.446Z,96036.73
2018-11-03T06:51:46.434Z,96037.23
2018-11-03T06:54:16.061Z,96038.27
2018-11-03T06:56:46.048Z,96034.70
2018-11-03T06:59:15.534Z,96037.64
2018-11-03T07:01:44.655Z,96037.22
2018-11-03T07:04:13.830Z,96038.59
2018-11-03T07:06:43.044Z,96035.86
2018-11-03T07:09:12.979Z,96041.05
2018-11-03T07:11:42.612Z,96037.77
2018-11-03T07:14:11.499Z,96041.48
2018-11-03T07:16:40.650Z,96037.92
2018-11-03T07:19:09.753Z,96041.38
2018-11-03T07:21:39.111Z,96032.34
2018-11-03T07:24:08.363Z,96033.69
2018-11-03T07:26:37.634Z,96027.77
2018-11-03T07:29:06.799Z,96030.98
2018-11-03T07:31:35.863Z,96030.49
2018-11-03T07:34:04.964Z,96032.81
2018-11-03T07:36:34.151Z,96030.66
2018-11-03T07:39:03.579Z,96023.20
2018-11-03T07:41:32.636Z,96025.52
2018-11-03T07:44:02.979Z,96028.94
2018-11-03T07:46:32.074Z,96030.92
2018-11-03T07:49:01.745Z,96029.72
2018-11-03T07:51:30.650Z,96027.91
2018-11-03T07:53:59.750Z,96030.34
2018-11-03T07:56:29.316Z,96022.25
2018-11-03T07:58:58.658Z,96024.98
2018-11-03T08:01:27.963Z,96026.96
2018-11-03T08:03:57.114Z,96020.63
2018-11-03T08:06:26.706Z,96016.67
2018-11-03T08:08:56.010Z,96024.57
2018-11-03T08:11:25.103Z,96018.39
2018-11-03T08:13:54.302Z,96019.31
2018-11-03T08:16:23.458Z,96012.20
2018-11-03T08:18:52.793Z,95998.36
2018-11-03T08:21:22.031Z,96004.94
2018-11-03T08:23:52.127Z,96009.45
2018-11-03T08:26:21.189Z,96009.28
2018-11-03T08:28:50.398Z,96003.08
2018-11-03T08:31:19.733Z,96001.89
2018-11-03T08:33:48.905Z,95998.59
2018-11-03T08:36:18.099Z,95993.60
2018-11-03T08:38:47.308Z,95997.61
2018-11-03T08:41:16.859Z,95976.13
2018-11-03T08:43:45.911Z,95990.89
2018-11-03T08:46:15.181Z,95984.00
2018-11-03T08:48:44.291Z,95988.68
2018-11-03T08:51:13.359Z,95982.92
2018-11-03T08:53:42.587Z,95978.83
2018-11-03T08:56:11.585Z,95979.59
2018-11-03T08:58:40.790Z,95981.97
2018-11-03T09:01:09.893Z,95979.88
2018-11-03T09:03:38.991Z,95973.05
2018-11-03T09:06:08.323Z,95968.20
2018-11-03T09:08:37.446Z,95963.89
2018-11-03T09:11:06.602Z,95962.53
2018-11-03T09:13:36.218Z,95964.31
2018-11-03T09:16:05.397Z,95966.95
2018-11-03T09:18:34.583Z,95959.94
2018-11-03T09:21:04.042Z,95962.83
2018-11-03T09:23:33.307Z,95950.63
2018-11-03T09:26:02.583Z,95954.91
2018-11-03T09:28:31.634Z,95944.91
2018-11-03T09:31:01.463Z,95940.46
2018-11-03T09:33:30.578Z,95943.00
2018-11-03T09:35:59.851Z,95935.44
2018-11-03T09:38:29.146Z,95936.22
2018-11-03T09:40:58.494Z,95927.09
2018-11-03T09:43:28.235Z,95927.73
2018-11-03T09:45:57.336Z,95929.33
2018-11-03T09:48:26.555Z,95921.42
2018-11-03T09:50:55.845Z,95926.77
2018-11-03T09:53:25.227Z,95914.20
2018-11-03T09:55:54.510Z,95913.38
2018-11-03T09:58:23.882Z,95908.05
2018-11-03T10:00:53.120Z,95904.05
2018-11-03T10:03:22.421Z,95901.89
2018-11-03T10:05:51.862Z,95893.97
2018-11-03T10:08:21.017Z,95891.31
2018-11-03T10:10:50.236Z,95886.09
2018-11-03T10:13:19.532Z,95888.56
2018-11-03T10:15:48.674Z,95882.95
2018-11-03T10:18:17.951Z,95875.67
2018-11-03T10:20:47.710Z,95868.25
2018-11-03T10:23:17.010Z,95865.25
2018-11-03T10:25:46.362Z,95856.22
2018-11-03T10:28:15.759Z,95857.18
2018-11-03T10:30:45.030Z,95852.08
2018-11-03T10:33:14.283Z,95848.55
2018-11-03T10:35:43.683Z,95840.86
2018-11-03T10:38:13.008Z,95842.48
2018-11-03T10:40:42.169Z,95837.20
2018-11-03T10:43:11.614Z,95836.86
2018-11-03T10:45:40.942Z,95832.55
2018-11-03T10:48:10.704Z,95833.13
2018-11-03T10:50:40.038Z,95824.37
2018-11-03T10:53:09.462Z,95828.71
2018-11-03T10:55:38.672Z,95822.36
2018-11-03T10:58:08.007Z,95815.71
2018-11-03T11:00:42.095Z,95807.55
2018-11-03T11:03:16.767Z,95807.11
2018-11-03T11:05:51.195Z,95801.77
2018-11-03T11:08:25.887Z,95806.23
2018-11-03T11:11:00.139Z,95796.31
2018-11-03T11:13:31.067Z,95796.94
2018-11-03T11:16:00.270Z,95791.64
2018-11-03T11:18:29.522Z,95788.72
2018-11-03T11:20:59.062Z,95788.13
2018-11-03T11:23:28.432Z,95782.95
2018-11-03T11:25:57.470Z,95771.19
2018-11-03T11:28:27.110Z,95775.36
2018-11-03T11:30:56.235Z,95763.07
2018-11-03T11:33:25.331Z,95752.95
2018-11-03T11:35:54.787Z,95755.95
2018-11-03T11:38:23.795Z,95754.95
2018-11-03T11:40:52.941Z,95760.53
2018-11-03T11:43:22.243Z,95745.66
2018-11-03T11:45:51.391Z,95739.50
2018-11-03T11:48:20.443Z,95741.41
2018-11-03T11:50:50.402Z,95736.94
2018-11-03T11:53:19.675Z,95731.66
2018-11-03T11:55:48.962Z,95730.66
2018-11-03T11:58:18.304Z,95729.70
2018-11-03T12:00:47.568Z,95724.21
2018-11-03T12:03:16.574Z,95721.11
2018-11-03T12:05:45.975Z,95717.04
2018-11-03T12:08:16.087Z,95719.55
2018-11-03T12:10:45.291Z,95715.03
2018-11-03T12:13:14.861Z,95715.03
2018-11-03T12:15:44.063Z,95708.63
2018-11-03T12:18:13.289Z,95706.81
2018-11-03T12:20:42.646Z,95720.88
2018-11-03T12:23:11.595Z,95702.40
2018-11-03T12:25:40.926Z,95706.48
2018-11-03T12:28:10.082Z,95703.16
2018-11-03T12:30:39.234Z,95713.64
2018-11-03T12:33:08.305Z,95705.38
2018-11-03T12:35:37.746Z,95708.10
2018-11-03T12:38:07.163Z,95715.73
2018-11-03T12:40:36.267Z,95701.36
2018-11-03T12:43:05.534Z,95710.72
2018-11-03T12:45:34.714Z,95693.83
2018-11-03T12:48:04.020Z,95708.58
2018-11-03T12:50:33.289Z,95719.45
2018-11-03T12:53:02.484Z,95707.98
2018-11-03T12:55:32.007Z,95701.44
2018-11-03T12:58:01.079Z,95711.33
2018-11-03T13:00:30.189Z,95710.22
2018-11-03T13:02:59.618Z,95706.59
2018-11-03T13:05:28.901Z,95710.02
2018-11-03T13:07:58.099Z,95705.26
2018-11-03T13:10:27.402Z,95704.94
2018-11-03T13:12:56.521Z,95701.63
2018-11-03T13:15:25.710Z,95700.11
2018-11-03T13:17:55.225Z,95707.70
2018-11-03T13:20:24.277Z,95702.08
2018-11-03T13:22:53.433Z,95710.81
2018-11-03T13:25:22.840Z,95714.25
2018-11-03T13:27:52.068Z,95712.21
2018-11-03T13:30:21.295Z,95713.77
2018-11-03T13:32:50.912Z,95707.16
2018-11-03T13:35:20.192Z,95712.02
2018-11-03T13:37:49.216Z,95701.02
2018-11-03T13:40:18.688Z,95701.63
2018-11-03T13:42:47.905Z,95699.88
2018-11-03T13:45:17.043Z,95694.57
2018-11-03T13:47:46.794Z,95691.95
2018-11-03T13:50:17.034Z,95701.25
2018-11-03T13:52:47.346Z,95709.43
2018-11-03T13:55:16.892Z,95694.91
2018-11-03T13:57:46.826Z,95690.51
2018-11-03T14:00:17.883Z,95701.59
2018-11-03T14:02:47.878Z,95700.22
2018-11-03T14:05:17.118Z,95694.64
2018-11-03T14:07:46.350Z,95693.27
2018-11-03T14:10:16.539Z,95704.84
2018-11-03T14:12:46.652Z,95699.58
2018-11-03T14:15:17.137Z,95698.45
2018-11-03T14:17:46.350Z,95698.36
2018-11-03T14:20:16.321Z,95694.22
2018-11-03T14:22:46.083Z,95703.64
2018-11-03T14:25:17.529Z,95705.53
2018-11-03T14:27:47.484Z,95704.03
2018-11-03T14:30:16.846Z,95705.31
2018-11-03T14:32:46.135Z,95706.22
2018-11-03T14:35:15.888Z,95711.27
2018-11-03T14:37:44.922Z,95707.99
2018-11-03T14:40:15.750Z,95706.21
2018-11-03T14:42:45.358Z,95727.34
2018-11-03T14:45:15.452Z,95707.22
2018-11-03T14:47:44.622Z,95719.48
2018-11-03T14:50:13.787Z,95716.25
2018-11-03T14:52:43.698Z,95724.47
2018-11-03T14:55:13.564Z,95728.62
2018-11-03T14:57:42.802Z,95732.02
2018-11-03T15:00:14.199Z,95724.76
2018-11-03T15:02:43.460Z,95731.44
2018-11-03T15:05:13.233Z,95727.59
2018-11-03T15:07:42.308Z,95728.17
2018-11-03T15:10:12.502Z,95730.96
2018-11-03T15:12:42.764Z,95729.23
2018-11-03T15:15:13.407Z,95725.53
2018-11-03T15:17:42.766Z,95723.99
2018-11-03T15:20:12.377Z,95733.16
2018-11-03T15:22:42.354Z,95730.06
2018-11-03T15:25:11.425Z,95738.93
2018-11-03T15:27:41.037Z,95736.94
2018-11-03T15:30:11.703Z,95746.34
2018-11-03T15:32:41.327Z,95750.66
2018-11-03T15:35:11.260Z,95744.12
2018-11-03T15:37:40.779Z,95754.50
2018-11-03T15:40:11.784Z,95750.98
2018-11-03T15:42:40.906Z,95758.91
2018-11-03T15:45:13.593Z,95759.66
2018-11-03T15:47:43.354Z,95756.09
2018-11-03T15:50:13.310Z,95768.70
2018-11-03T15:52:42.976Z,95761.78
2018-11-03T15:55:12.076Z,95767.44
2018-11-03T15:57:41.960Z,95774.94
2018-11-03T16:00:14.227Z,95766.14
2018-11-03T16:02:43.340Z,95774.77
2018-11-03T16:05:12.460Z,95785.17
2018-11-03T16:07:41.874Z,95769.16
2018-11-03T16:10:11.484Z,95764.08
2018-11-03T16:12:40.996Z,95775.78
2018-11-03T16:15:11.468Z,95776.94
2018-11-03T16:17:41.370Z,95790.42
2018-11-03T16:20:11.700Z,95773.70
2018-11-03T16:22:41.457Z,95777.28
2018-11-03T16:25:10.699Z,95778.17
2018-11-03T16:27:40.206Z,95772.19
2018-11-03T16:30:11.603Z,95778.45
2018-11-03T16:32:41.079Z,95779.73
2018-11-03T16:35:09.963Z,95789.22
2018-11-03T16:37:39.507Z,95780.52
2018-11-03T16:40:10.151Z,95801.36
2018-11-03T16:42:39.405Z,95785.84
2018-11-03T16:45:10.411Z,95796.66
2018-11-03T16:47:39.566Z,95787.17
2018-11-03T16:50:09.991Z,95795.22
2018-11-03T16:52:39.705Z,95796.47
2018-11-03T16:55:09.395Z,95789.22
2018-11-03T16:57:38.990Z,95782.83
2018-11-03T17:00:10.301Z,95794.06
2018-11-03T17:02:39.582Z,95793.91
2018-11-03T17:05:10.006Z,95797.96
2018-11-03T17:07:39.547Z,95810.52
2018-11-03T17:10:11.041Z,95792.89
2018-11-03T17:12:41.476Z,95811.03
2018-11-03T17:15:11.222Z,95805.84
2018-11-03T17:17:40.450Z,95813.84
2018-11-03T17:20:10.398Z,95799.92
2018-11-03T17:22:39.597Z,95800.73
2018-11-03T17:25:10.249Z,95813.19
2018-11-03T17:27:39.617Z,95814.58
2018-11-03T17:30:10.453Z,95794.83
2018-11-03T17:32:39.772Z,95809.13
2018-11-03T17:35:09.251Z,95774.80
2018-11-03T17:37:38.558Z,95796.95
2018-11-03T17:40:08.843Z,95803.10
2018-11-03T17:42:38.398Z,95797.19
2018-11-03T17:45:08.535Z,95804.10
2018-11-03T17:47:37.859Z,95810.27
2018-11-03T17:50:08.403Z,95804.30
2018-11-03T17:52:37.583Z,95820.41
2018-11-03T17:55:07.352Z,95821.45
2018-11-03T17:57:36.996Z,95818.72
2018-11-03T18:00:09.179Z,95809.22
2018-11-03T18:02:38.491Z,95811.94
2018-11-03T18:05:07.533Z,95808.58
2018-11-03T18:07:36.487Z,95814.39
2018-11-03T18:10:06.199Z,95801.98
2018-11-03T18:12:35.557Z,95808.83
2018-11-03T18:15:04.958Z,95812.91
2018-11-03T18:17:34.395Z,95836.11
2018-11-03T18:20:03.791Z,95831.31
2018-11-03T18:22:33.082Z,95827.31
2018-11-03T18:25:02.763Z,95820.55
2018-11-03T18:27:31.894Z,95836.40
2018-11-03T18:30:01.053Z,95814.41
2018-11-03T18:32:30.562Z,95840.06
2018-11-03T18:34:59.893Z,95849.18
2018-11-03T18:37:29.075Z,95854.43
2018-11-03T18:39:58.552Z,95845.54
2018-11-03T18:42:27.610Z,95854.81
2018-11-03T18:44:56.899Z,95850.34
2018-11-03T18:47:26.310Z,95856.56
2018-11-03T18:49:55.421Z,95863.70
2018-11-03T18:52:24.594Z,95863.05
2018-11-03T18:54:54.158Z,95881.64
2018-11-03T18:57:23.303Z,95874.77
2018-11-03T18:59:53.115Z,95874.11
2018-11-03T19:02:23.475Z,95887.97
2018-11-03T19:04:52.718Z,95877.41
2018-11-03T19:07:21.869Z,95884.17
2018-11-03T19:09:51.333Z,95885.84
2018-11-03T19:12:20.446Z,95878.03
2018-11-03T19:14:49.619Z,95883.16
2018-11-03T19:17:18.886Z,95890.91
2018-11-03T19:19:47.998Z,95876.84
2018-11-03T19:22:17.110Z,95887.09
2018-11-03T19:24:46.547Z,95879.39
2018-11-03T19:27:15.647Z,95891.27
2018-11-03T19:29:44.881Z,95879.40
2018-11-03T19:32:14.465Z,95887.92
2018-11-03T19:34:43.746Z,95893.84
2018-11-03T19:37:13.063Z,95903.56
2018-11-03T19:39:42.307Z,95894.55
2018-11-03T19:42:11.458Z,95898.30
2018-11-03T19:44:40.829Z,95893.69
2018-11-03T19:47:10.117Z,95907.07
2018-11-03T19:49:39.428Z,95908.55
2018-11-03T19:52:08.653Z,95919.92
2018-11-03T19:54:38.175Z,95905.22
2018-11-03T19:57:07.294Z,95912.76
2018-11-03T19:59:36.455Z,95934.70
2018-11-03T20:02:05.822Z,95924.09
2018-11-03T20:04:35.369Z,95909.88
2018-11-03T20:07:04.634Z,95914.63
2018-11-03T20:09:33.870Z,95924.41
2018-11-03T20:12:03.301Z,95929.40
2018-11-03T20:14:32.551Z,95920.05
2018-11-03T20:17:01.907Z,95934.81
2018-11-03T20:19:30.975Z,95919.91
2018-11-03T20:22:00.162Z,95928.84
2018-11-03T20:24:29.742Z,95926.86
2018-11-03T20:26:58.896Z,95925.07
2018-11-03T20:29:28.092Z,95925.84
2018-11-03T20:31:57.751Z,95923.98
2018-11-03T20:34:26.817Z,95918.77
2018-11-03T20:36:56.059Z,95927.77
2018-11-03T20:39:25.463Z,95917.13
2018-11-03T20:41:54.797Z,95930.94
2018-11-03T20:44:23.879Z,95915.08
2018-11-03T20:46:53.370Z,95916.98
2018-11-03T20:49:22.554Z,95927.34
2018-11-03T20:51:51.754Z,95909.41
2018-11-03T20:54:21.304Z,95918.98
2018-11-03T20:56:50.589Z,95914.02
2018-11-03T20:59:19.609Z,95914.02
2018-11-03T21:01:49.106Z,95924.91
2018-11-03T21:04:18.442Z,95914.72
2018-11-03T21:06:47.574Z,95920.47
2018-11-03T21:09:17.224Z,95922.27
2018-11-03T21:11:46.313Z,95937.77
2018-11-03T21:14:15.602Z,95924.83
2018-11-03T21:16:44.931Z,95918.08
2018-11-03T21:19:14.206Z,95927.25
2018-11-03T21:21:43.337Z,95926.89
2018-11-03T21:24:12.721Z,95918.17
2018-11-03T21:26:42.205Z,95922.69
2018-11-03T21:29:11.291Z,95932.48
2018-11-03T21:31:40.543Z,95914.14
2018-11-03T21:34:09.676Z,95920.06
2018-11-03T21:36:38.897Z,95916.30
2018-11-03T21:39:09.928Z,95922.56
2018-11-03T21:41:39.145Z,95912.02
2018-11-03T21:44:08.427Z,95918.70
2018-11-03T21:46:37.875Z,95910.42
2018-11-03T21:49:07.244Z,95907.69
2018-11-03T21:51:36.418Z,95904.05
2018-11-03T21:54:06.027Z,95905.77
2018-11-03T21:56:35.174Z,95900.31
2018-11-03T21:59:04.460Z,95904.41
2018-11-03T22:01:33.551Z,95896.88
2018-11-03T22:04:02.755Z,95894.58
2018-11-03T22:06:31.949Z,95895.50
2018-11-03T22:09:01.730Z,95890.13
2018-11-03T22:11:30.838Z,95888.41
2018-11-03T22:13:59.874Z,95889.10
2018-11-03T22:16:29.950Z,95886.96
2018-11-03T22:18:59.229Z,95883.55
2018-11-03T22:21:28.711Z,95884.14
2018-11-03T22:23:58.208Z,95889.81
2018-11-03T22:26:27.479Z,95884.23
2018-11-03T22:28:56.938Z,95885.78
2018-11-03T22:31:26.271Z,95873.26
2018-11-03T22:33:55.381Z,95880.44
2018-11-03T22:36:24.407Z,95870.84
2018-11-03T22:38:53.758Z,95875.38
2018-11-03T22:41:22.796Z,95871.59
2018-11-03T22:43:51.967Z,95862.69
2018-11-03T22:46:21.238Z,95869.63
2018-11-03T22:48:50.497Z,95866.45
2018-11-03T22:51:19.729Z,95862.66
2018-11-03T22:53:49.218Z,95856.59
2018-11-03T22:56:18.496Z,95862.17
2018-11-03T22:58:47.407Z,95851.88
2018-11-03T23:01:16.739Z,95850.02
2018-11-03T23:03:45.976Z,95849.73
2018-11-03T23:06:15.162Z,95850.41
2018-11-03T23:08:44.275Z,95851.18
2018-11-03T23:11:13.572Z,95844.64
2018-11-03T23:13:42.915Z,95839.77
2018-11-03T23:16:12.438Z,95838.98
2018-11-03T23:18:41.528Z,95843.45
2018-11-03T23:21:10.504Z,95838.74
2018-11-03T23:23:39.796Z,95839.62
2018-11-03T23:26:08.951Z,95842.50
2018-11-03T23:28:38.072Z,95854.91
2018-11-03T23:31:07.361Z,95853.26
2018-11-03T23:33:36.460Z,95845.80
2018-11-03T23:36:05.601Z,95853.61
2018-11-03T23:38:34.715Z,95860.28
2018-11-03T23:41:03.866Z,95854.31
2018-11-03T23:43:32.953Z,95846.02
2018-11-03T23:46:02.098Z,95853.14
2018-11-03T23:48:31.249Z,95854.69
2018-11-03T23:51:00.455Z,95849.91
2018-11-03T23:53:29.811Z,95856.16
2018-11-03T23:55:59.068Z,95854.72
2018-11-03T23:58:28.165Z,95851.73
